Time;durP1;ratioP1;P1;durP2;ratioP2;P2;SDS_P1;SDS_P2;PMS_P1;PMS_P2;Temp;Humidity;BMP_temperature;BMP_pressure;BME280_temperature;BME280_humidity;BME280_pressure;Samples;Min_cycle;Max_cycle;Signal;HPM_P1;HPM_P2
2023/06/07 00:01:12;;;;;;;18.40;14.40;;;;;;;17.51;67.03;100350.89;130467;1268;114987;-67
2023/06/07 00:04:15;;;;;;;16.40;13.70;;;;;;;17.51;67.01;100346.88;129614;1266;116522;-67
2023/06/07 00:07:18;;;;;;;16.70;13.50;;;;;;;17.52;67.04;100347.38;130485;1267;114693;-67
2023/06/07 00:10:20;;;;;;;19.40;13.60;;;;;;;17.52;67.12;100347.77;130391;1257;115157;-66
2023/06/07 00:13:22;;;;;;;16.60;13.20;;;;;;;17.51;67.14;100345.45;130429;1257;114728;-66
2023/06/07 00:16:24;;;;;;;17.90;12.90;;;;;;;17.51;67.22;100347.07;130402;1257;114807;-66
2023/06/07 00:19:27;;;;;;;19.50;13.30;;;;;;;17.51;67.28;100344.54;130324;1254;114702;-67
2023/06/07 00:22:33;;;;;;;15.80;13.00;;;;;;;17.51;67.18;100340.20;130307;1254;114864;-67
2023/06/07 00:25:35;;;;;;;18.10;13.10;;;;;;;17.51;67.25;100338.44;130286;1254;114870;-66
2023/06/07 00:28:37;;;;;;;18.40;12.10;;;;;;;17.51;67.02;100341.69;130296;1264;114951;-68
2023/06/07 00:31:39;;;;;;;17.10;12.30;;;;;;;17.52;67.15;100346.31;130322;1254;114728;-68
2023/06/07 00:34:41;;;;;;;19.60;13.10;;;;;;;17.52;67.17;100346.69;130239;1258;114692;-67
2023/06/07 00:37:44;;;;;;;17.10;12.60;;;;;;;17.51;67.18;100343.85;130211;1274;114794;-67
2023/06/07 00:40:46;;;;;;;12.80;11.40;;;;;;;17.51;67.15;100347.50;130392;1255;114775;-67
2023/06/07 00:43:48;;;;;;;21.50;13.70;;;;;;;17.51;67.06;100347.64;130348;1258;114747;-67
2023/06/07 00:46:52;;;;;;;18.40;13.80;;;;;;;17.51;67.12;100347.98;130407;1262;114729;-67
2023/06/07 00:49:54;;;;;;;17.80;13.00;;;;;;;17.51;67.26;100350.33;130593;1271;114801;-67
2023/06/07 00:52:56;;;;;;;18.40;13.50;;;;;;;17.51;67.24;100357.04;130401;1253;114875;-68
2023/06/07 00:55:58;;;;;;;17.50;12.70;;;;;;;17.50;67.32;100363.98;130333;1267;114714;-68
2023/06/07 00:59:00;;;;;;;16.40;11.90;;;;;;;17.48;67.56;100367.20;130216;1257;114722;-67
2023/06/07 01:02:03;;;;;;;15.90;12.40;;;;;;;17.46;67.55;100364.41;130436;1254;114785;-67
2023/06/07 01:05:06;;;;;;;16.70;12.30;;;;;;;17.46;67.53;100362.42;130007;1255;115384;-67
2023/06/07 01:08:09;;;;;;;13.30;11.70;;;;;;;17.46;67.71;100362.42;130241;1257;114945;-67
2023/06/07 01:11:12;;;;;;;15.80;12.40;;;;;;;17.46;67.60;100366.05;130377;1257;115134;-67
2023/06/07 01:14:15;;;;;;;16.00;13.30;;;;;;;17.46;67.48;100357.92;130387;1254;114740;-68
2023/06/07 01:17:18;;;;;;;17.00;12.80;;;;;;;17.46;67.65;100356.69;130248;1254;115186;-67
2023/06/07 01:20:24;;;;;;;15.50;12.00;;;;;;;17.45;67.60;100353.88;130237;1257;114681;-68
2023/06/07 01:23:36;;;;;;;15.00;12.60;;;;;;;17.44;67.59;100351.98;130474;1257;114689;-68
2023/06/07 01:26:39;;;;;;;13.80;11.90;;;;;;;17.42;67.48;100353.53;130324;1257;114711;-67
2023/06/07 01:29:41;;;;;;;20.80;12.30;;;;;;;17.41;67.38;100349.83;130188;1266;114808;-67
2023/06/07 01:32:44;;;;;;;18.60;12.10;;;;;;;17.40;67.41;100353.70;130402;1254;114735;-67
2023/06/07 01:35:48;;;;;;;15.60;13.10;;;;;;;17.39;67.36;100354.52;130305;1260;114807;-67
2023/06/07 01:38:50;;;;;;;15.00;12.60;;;;;;;17.38;67.32;100359.67;130229;1257;114843;-66
2023/06/07 01:41:53;;;;;;;14.60;11.90;;;;;;;17.37;67.17;100357.19;130305;1257;114725;-66
2023/06/07 01:44:56;;;;;;;13.80;11.70;;;;;;;17.38;67.27;100356.42;130227;1259;114799;-67
2023/06/07 01:47:58;;;;;;;15.70;11.70;;;;;;;17.37;67.22;100354.48;130285;1266;114719;-66
2023/06/07 01:51:00;;;;;;;17.00;12.60;;;;;;;17.37;66.99;100353.94;130268;1256;115659;-66
2023/06/07 01:54:03;;;;;;;14.90;11.80;;;;;;;17.37;67.03;100348.20;130412;1266;114734;-67
2023/06/07 01:57:17;;;;;;;14.70;12.70;;;;;;;17.37;67.05;100349.77;129880;1257;128739;-67
2023/06/07 02:00:32;;;;;;;12.40;11.10;;;;;;;17.36;66.94;100353.13;130083;1262;115140;-67
2023/06/07 02:03:53;;;;;;;15.10;12.30;;;;;;;17.35;67.00;100348.14;130033;1254;114745;-66
2023/06/07 02:07:01;;;;;;;14.20;11.60;;;;;;;17.34;66.92;100348.79;130073;1261;114767;-66
2023/06/07 02:10:04;;;;;;;17.10;11.50;;;;;;;17.33;66.86;100350.46;130100;1257;116239;-67
2023/06/07 02:13:06;;;;;;;17.10;11.90;;;;;;;17.32;66.97;100347.48;130391;1257;114782;-67
2023/06/07 02:16:09;;;;;;;15.70;11.40;;;;;;;17.30;66.93;100347.61;130464;1257;114743;-67
2023/06/07 02:19:12;;;;;;;13.90;11.80;;;;;;;17.28;67.14;100352.07;130253;1259;114837;-68
2023/06/07 02:22:15;;;;;;;15.80;12.40;;;;;;;17.27;66.92;100349.13;129858;1257;370178;-66
2023/06/07 02:25:17;;;;;;;14.40;12.10;;;;;;;17.24;67.01;100349.50;130421;1276;114794;-66
2023/06/07 02:28:19;;;;;;;15.10;12.00;;;;;;;17.23;66.83;100353.59;130450;1257;114734;-67
2023/06/07 02:31:21;;;;;;;14.30;11.60;;;;;;;17.20;66.92;100353.59;130309;1276;114715;-66
2023/06/07 02:34:24;;;;;;;14.90;12.10;;;;;;;17.20;67.00;100353.46;130276;1257;115157;-67
2023/06/07 02:37:28;;;;;;;16.10;11.90;;;;;;;17.19;66.99;100357.15;130412;1253;114725;-67
2023/06/07 02:40:30;;;;;;;19.50;11.30;;;;;;;17.17;66.98;100355.81;130561;1257;114909;-67
2023/06/07 02:43:33;;;;;;;13.80;10.80;;;;;;;17.17;67.07;100360.35;130422;1276;114795;-67
2023/06/07 02:46:35;;;;;;;15.10;11.90;;;;;;;17.17;67.08;100363.96;130401;1261;114801;-67
2023/06/07 02:49:37;;;;;;;13.60;10.80;;;;;;;17.16;67.03;100363.84;130682;1254;115295;-67
2023/06/07 02:52:39;;;;;;;14.90;11.30;;;;;;;17.15;66.94;100363.54;130501;1268;114699;-67
2023/06/07 02:55:42;;;;;;;12.90;10.00;;;;;;;17.15;66.82;100366.63;130580;1254;128863;-67
2023/06/07 02:58:44;;;;;;;14.00;10.30;;;;;;;17.14;66.88;100368.65;130459;1254;114724;-67
2023/06/07 03:01:46;;;;;;;16.40;11.80;;;;;;;17.14;66.95;100370.30;130651;1267;114712;-67
2023/06/07 03:04:49;;;;;;;15.00;11.30;;;;;;;17.14;67.08;100370.81;130684;1276;114763;-67
2023/06/07 03:07:52;;;;;;;14.60;11.00;;;;;;;17.15;67.02;100373.49;130261;1254;114811;-68
2023/06/07 03:10:54;;;;;;;14.10;11.50;;;;;;;17.14;67.06;100372.66;130257;1263;114827;-67
2023/06/07 03:13:56;;;;;;;16.00;11.50;;;;;;;17.14;67.00;100371.94;130267;1253;114744;-67
2023/06/07 03:16:58;;;;;;;17.50;11.90;;;;;;;17.14;67.17;100373.94;130342;1270;114705;-67
2023/06/07 03:20:00;;;;;;;12.00;10.70;;;;;;;17.14;67.15;100376.64;130560;1258;115393;-68
2023/06/07 03:23:04;;;;;;;12.20;10.90;;;;;;;17.14;67.18;100375.54;130508;1257;114719;-67
2023/06/07 03:26:07;;;;;;;16.60;11.30;;;;;;;17.15;67.31;100383.02;130328;1253;115084;-68
2023/06/07 03:29:09;;;;;;;13.50;12.10;;;;;;;17.16;67.44;100383.86;130254;1258;114763;-67
2023/06/07 03:32:11;;;;;;;15.80;11.70;;;;;;;17.18;67.50;100386.45;130215;1276;114864;-67
2023/06/07 03:35:14;;;;;;;14.00;11.20;;;;;;;17.19;67.62;100389.23;130395;1257;114749;-67
2023/06/07 03:38:16;;;;;;;16.70;12.30;;;;;;;17.20;67.59;100394.76;129979;1260;115160;-67
2023/06/07 03:41:18;;;;;;;17.10;12.30;;;;;;;17.22;67.55;100397.38;130279;1252;114702;-67
2023/06/07 03:44:20;;;;;;;19.50;12.60;;;;;;;17.21;67.31;100397.20;130341;1257;114724;-67
2023/06/07 03:47:22;;;;;;;17.60;12.30;;;;;;;17.21;67.25;100399.17;130391;1257;114802;-68
2023/06/07 03:50:24;;;;;;;13.10;11.50;;;;;;;17.22;67.23;100398.59;130368;1254;114677;-66
2023/06/07 03:53:26;;;;;;;16.10;11.60;;;;;;;17.24;67.68;100403.81;130426;1254;115324;-67
2023/06/07 03:56:28;;;;;;;14.90;11.80;;;;;;;17.26;67.43;100404.61;130311;1257;128062;-67
2023/06/07 03:59:30;;;;;;;14.40;10.50;;;;;;;17.28;67.62;100405.55;130358;1254;114792;-67
2023/06/07 04:02:32;;;;;;;14.30;11.00;;;;;;;17.30;67.60;100407.72;130467;1254;114745;-67
2023/06/07 04:05:38;;;;;;;15.40;11.40;;;;;;;17.32;67.63;100406.85;130095;1256;114775;-67
2023/06/07 04:08:40;;;;;;;12.70;10.90;;;;;;;17.33;67.71;100404.46;130487;1256;114775;-68
2023/06/07 04:11:42;;;;;;;15.00;11.30;;;;;;;17.34;67.72;100403.29;130328;1257;115125;-67
2023/06/07 04:14:44;;;;;;;14.30;11.00;;;;;;;17.35;67.79;100407.55;130418;1253;115659;-67
2023/06/07 04:17:49;;;;;;;12.80;10.90;;;;;;;17.36;67.86;100409.27;130251;1256;128640;-67
2023/06/07 04:20:51;;;;;;;21.40;12.50;;;;;;;17.38;67.80;100407.85;130165;1260;114649;-67
2023/06/07 04:23:53;;;;;;;16.90;11.30;;;;;;;17.40;67.76;100408.95;130249;1256;114703;-67
2023/06/07 04:26:56;;;;;;;15.90;11.80;;;;;;;17.42;67.63;100403.91;130261;1256;116204;-67
2023/06/07 04:30:01;;;;;;;15.50;11.20;;;;;;;17.44;67.35;100402.85;130273;1257;114697;-68
2023/06/07 04:33:08;;;;;;;16.60;11.00;;;;;;;17.45;66.92;100400.75;130233;1254;114665;-68
2023/06/07 04:36:10;;;;;;;15.70;10.70;;;;;;;17.47;66.85;100401.02;130002;1270;128165;-67
2023/06/07 04:39:12;;;;;;;17.90;11.20;;;;;;;17.49;66.81;100396.73;130372;1254;115084;-68
2023/06/07 04:42:16;;;;;;;15.10;11.10;;;;;;;17.53;66.94;100396.23;130436;1257;114798;-67
2023/06/07 04:45:20;;;;;;;15.20;11.60;;;;;;;17.57;67.04;100395.05;130273;1257;114712;-68
2023/06/07 04:48:24;;;;;;;15.50;12.30;;;;;;;17.58;66.81;100392.73;130188;1262;114759;-68
2023/06/07 04:51:29;;;;;;;16.90;11.40;;;;;;;17.63;66.77;100393.68;130485;1257;115141;-68
2023/06/07 04:54:36;;;;;;;21.50;12.10;;;;;;;17.67;66.56;100387.57;130397;1254;128065;-68
2023/06/07 04:57:38;;;;;;;15.90;12.00;;;;;;;17.70;66.57;100386.77;130211;1260;114843;-67
2023/06/07 05:00:40;;;;;;;15.00;11.30;;;;;;;17.74;66.56;100382.08;130289;1263;114751;-68
2023/06/07 05:03:43;;;;;;;16.40;11.50;;;;;;;17.78;66.52;100381.66;130300;1254;115214;-67
2023/06/07 05:06:45;;;;;;;18.30;13.90;;;;;;;17.83;66.71;100381.09;129905;1258;115285;-68
2023/06/07 05:09:47;;;;;;;15.80;12.70;;;;;;;17.87;66.51;100378.55;130344;1254;114801;-67
2023/06/07 05:12:49;;;;;;;18.50;13.60;;;;;;;17.90;66.58;100379.39;130323;1257;114800;-67
2023/06/07 05:15:54;;;;;;;22.90;15.50;;;;;;;17.95;66.45;100378.74;130343;1269;127964;-66
2023/06/07 05:18:56;;;;;;;19.30;14.30;;;;;;;17.95;66.38;100383.02;130437;1254;114702;-68
2023/06/07 05:21:58;;;;;;;18.00;14.00;;;;;;;17.97;66.29;100386.65;130388;1276;115236;-68
2023/06/07 05:25:01;;;;;;;22.60;14.60;;;;;;;17.98;66.24;100386.08;130340;1254;114699;-68
2023/06/07 05:28:03;;;;;;;21.10;13.30;;;;;;;18.01;66.31;100389.83;130060;1276;114878;-68
2023/06/07 05:31:05;;;;;;;18.10;13.30;;;;;;;18.04;66.42;100396.45;130269;1254;114776;-68
2023/06/07 05:34:08;;;;;;;16.10;13.10;;;;;;;18.07;66.24;100400.88;130258;1256;114769;-68
2023/06/07 05:37:12;;;;;;;19.20;14.80;;;;;;;18.13;66.42;100409.53;130348;1257;114809;-68
2023/06/07 05:40:17;;;;;;;18.90;15.50;;;;;;;18.19;66.52;100410.27;130059;1276;115211;-68
2023/06/07 05:43:20;;;;;;;20.10;14.70;;;;;;;18.25;66.47;100407.25;130367;1257;114727;-68
2023/06/07 05:46:22;;;;;;;21.00;15.70;;;;;;;18.32;66.27;100408.33;130499;1254;114728;-69
2023/06/07 05:49:24;;;;;;;22.30;14.80;;;;;;;18.37;66.28;100405.54;130474;1256;114717;-66
2023/06/07 05:52:26;;;;;;;18.90;14.20;;;;;;;18.43;66.20;100407.48;130048;1256;114722;-67
2023/06/07 05:55:28;;;;;;;22.50;14.40;;;;;;;18.46;66.07;100406.98;130402;1256;114703;-67
2023/06/07 05:58:31;;;;;;;20.10;14.00;;;;;;;18.50;66.07;100408.29;130583;1256;114711;-67
2023/06/07 06:01:34;;;;;;;19.10;14.60;;;;;;;18.52;66.01;100407.95;130599;1256;115197;-67
2023/06/07 06:04:37;;;;;;;24.70;14.80;;;;;;;18.55;66.02;100411.76;130268;1256;114889;-67
2023/06/07 06:07:38;;;;;;;32.40;23.90;;;;;;;18.57;65.98;100414.64;130446;1254;114801;-67
2023/06/07 06:10:41;;;;;;;23.30;14.10;;;;;;;18.56;65.62;100416.17;130683;1256;114760;-67
2023/06/07 06:13:43;;;;;;;20.30;13.10;;;;;;;18.55;65.36;100416.98;130071;1261;115326;-68
2023/06/07 06:16:45;;;;;;;16.20;12.60;;;;;;;18.55;65.43;100419.48;130234;1254;114843;-67
2023/06/07 06:19:47;;;;;;;20.60;12.80;;;;;;;18.60;65.46;100417.13;130610;1256;114756;-67
2023/06/07 06:22:50;;;;;;;18.80;13.30;;;;;;;18.64;65.39;100414.60;130631;1268;115185;-68
2023/06/07 06:25:52;;;;;;;17.20;13.00;;;;;;;18.66;65.35;100416.75;130585;1256;114692;-68
2023/06/07 06:28:54;;;;;;;18.60;12.70;;;;;;;18.69;65.24;100415.27;130266;1254;114850;-66
2023/06/07 06:31:56;;;;;;;23.00;13.90;;;;;;;18.74;65.17;100408.38;130335;1254;114795;-66
2023/06/07 06:34:58;;;;;;;17.00;12.40;;;;;;;18.80;65.05;100409.29;129925;1262;114818;-66
2023/06/07 06:38:01;;;;;;;23.90;13.10;;;;;;;18.89;64.92;100408.05;130187;1256;115279;-67
2023/06/07 06:41:03;;;;;;;14.90;12.40;;;;;;;18.94;64.71;100411.96;130254;1257;114693;-66
2023/06/07 06:44:05;;;;;;;18.60;13.20;;;;;;;18.99;64.73;100411.20;130373;1259;114741;-67
2023/06/07 06:47:07;;;;;;;19.70;12.10;;;;;;;19.10;64.67;100412.86;130219;1254;114731;-67
2023/06/07 06:50:11;;;;;;;19.10;11.90;;;;;;;19.20;64.59;100411.35;130264;1257;114716;-67
2023/06/07 06:53:13;;;;;;;20.40;12.60;;;;;;;19.29;64.49;100414.13;130313;1254;114707;-67
2023/06/07 06:56:15;;;;;;;26.00;12.90;;;;;;;19.39;64.34;100418.23;130352;1254;115324;-67
2023/06/07 06:59:17;;;;;;;17.00;12.50;;;;;;;19.48;64.27;100415.50;130286;1276;129185;-67
2023/06/07 07:02:19;;;;;;;17.00;11.20;;;;;;;19.57;64.15;100413.77;130257;1260;115112;-67
2023/06/07 07:05:21;;;;;;;16.60;12.00;;;;;;;19.68;64.13;100418.50;130495;1257;115278;-67
2023/06/07 07:08:24;;;;;;;14.70;10.90;;;;;;;19.79;64.03;100416.09;130387;1259;114632;-67
2023/06/07 07:11:26;;;;;;;17.80;11.50;;;;;;;19.89;63.66;100416.91;130368;1257;114778;-68
2023/06/07 07:14:29;;;;;;;15.80;10.90;;;;;;;19.96;63.46;100420.44;130526;1275;115179;-67
2023/06/07 07:17:31;;;;;;;14.80;10.60;;;;;;;20.06;63.25;100422.44;130701;1256;114736;-67
2023/06/07 07:20:34;;;;;;;16.20;9.00;;;;;;;20.21;63.26;100423.17;130693;1256;114677;-67
2023/06/07 07:23:36;;;;;;;14.40;8.80;;;;;;;20.32;62.77;100426.02;130215;1275;115135;-67
2023/06/07 07:26:39;;;;;;;11.60;8.60;;;;;;;20.42;62.49;100425.46;130380;1252;114724;-67
2023/06/07 07:29:41;;;;;;;17.20;10.20;;;;;;;20.53;62.34;100431.95;130334;1258;115019;-67
2023/06/07 07:32:43;;;;;;;12.20;9.20;;;;;;;20.61;62.13;100435.55;130456;1275;114725;-68
2023/06/07 07:35:45;;;;;;;14.90;8.70;;;;;;;20.72;62.33;100433.36;130436;1256;114833;-68
2023/06/07 07:38:48;;;;;;;12.40;9.80;;;;;;;20.84;62.22;100434.84;130587;1253;114715;-68
2023/06/07 07:41:50;;;;;;;13.00;9.70;;;;;;;20.97;62.07;100437.48;130421;1256;114781;-67
2023/06/07 07:44:53;;;;;;;12.40;8.80;;;;;;;21.10;62.01;100435.73;130383;1259;114715;-66
2023/06/07 07:47:55;;;;;;;14.50;9.50;;;;;;;21.26;61.94;100438.67;129984;1262;114847;-67
2023/06/07 07:50:57;;;;;;;14.50;9.00;;;;;;;21.39;62.09;100436.74;130202;1256;115253;-68
2023/06/07 07:54:00;;;;;;;15.80;9.80;;;;;;;21.48;61.85;100437.54;130196;1259;114701;-67
2023/06/07 07:57:02;;;;;;;15.60;9.80;;;;;;;21.55;61.68;100438.31;129987;1260;114834;-68
2023/06/07 08:00:05;;;;;;;16.50;11.70;;;;;;;21.59;61.24;100436.91;130203;1254;114683;-68
2023/06/07 08:03:09;;;;;;;16.80;11.20;;;;;;;21.64;61.16;100437.48;130325;1259;115082;-67
2023/06/07 08:06:11;;;;;;;15.80;10.40;;;;;;;21.70;60.97;100433.83;130421;1254;114715;-68
2023/06/07 08:09:14;;;;;;;14.30;9.90;;;;;;;21.78;60.83;100437.14;130420;1257;114708;-67
2023/06/07 08:12:16;;;;;;;14.50;10.00;;;;;;;21.89;60.83;100437.21;130394;1254;114856;-68
2023/06/07 08:15:18;;;;;;;14.30;11.70;;;;;;;22.05;60.59;100439.14;130379;1256;114780;-68
2023/06/07 08:18:20;;;;;;;17.10;10.70;;;;;;;22.23;60.57;100441.05;130458;1257;114701;-67
2023/06/07 08:21:23;;;;;;;13.70;9.20;;;;;;;22.41;59.98;100437.15;130274;1254;128159;-67
2023/06/07 08:24:25;;;;;;;12.30;9.10;;;;;;;22.59;59.95;100439.14;130466;1256;114944;-67
2023/06/07 08:27:27;;;;;;;11.60;8.50;;;;;;;22.85;59.39;100429.35;130363;1256;114700;-68
2023/06/07 08:30:29;;;;;;;12.80;8.60;;;;;;;23.17;58.85;100430.59;130425;1259;115087;-68
2023/06/07 08:33:31;;;;;;;9.30;7.90;;;;;;;23.78;58.87;100428.05;130436;1254;114811;-69
2023/06/07 08:36:35;;;;;;;10.60;6.80;;;;;;;24.39;58.08;100428.14;130322;1260;115237;-70
2023/06/07 08:39:38;;;;;;;9.20;6.20;;;;;;;24.83;57.18;100432.93;130298;1258;115129;-69
2023/06/07 08:42:40;;;;;;;10.50;6.50;;;;;;;25.33;56.57;100431.71;130292;1254;114683;-68
2023/06/07 08:45:43;;;;;;;8.30;6.70;;;;;;;25.84;55.90;100425.36;130470;1257;115194;-68
2023/06/07 08:48:48;;;;;;;10.30;7.20;;;;;;;26.35;55.38;100417.98;130433;1254;115364;-67
2023/06/07 08:51:52;;;;;;;12.80;7.00;;;;;;;26.88;54.66;100413.38;130429;1275;114850;-68
2023/06/07 08:55:00;;;;;;;8.90;6.10;;;;;;;27.33;53.92;100416.70;130434;1257;114725;-69
2023/06/07 08:58:02;;;;;;;7.10;5.50;;;;;;;27.75;53.11;100414.88;130103;1254;119202;-68
2023/06/07 09:01:05;;;;;;;10.70;6.00;;;;;;;28.21;51.70;100413.20;130227;1273;115189;-69
2023/06/07 09:04:07;;;;;;;7.20;6.00;;;;;;;28.57;50.50;100410.36;130417;1259;115347;-68
2023/06/07 09:07:10;;;;;;;8.10;5.70;;;;;;;28.82;49.54;100408.45;130413;1272;114721;-68
2023/06/07 09:10:13;;;;;;;9.10;6.10;;;;;;;29.06;48.61;100407.02;130352;1259;114880;-68
2023/06/07 09:13:22;;;;;;;10.20;5.80;;;;;;;29.30;47.73;100406.46;130407;1254;115129;-68
2023/06/07 09:16:25;;;;;;;8.50;6.50;;;;;;;29.47;46.71;100406.48;130269;1276;119966;-68
2023/06/07 09:19:32;;;;;;;9.10;5.70;;;;;;;29.44;45.73;100406.16;130297;1253;114715;-68
2023/06/07 09:22:35;;;;;;;12.70;5.80;;;;;;;29.23;45.63;100408.44;130154;1257;114940;-68
2023/06/07 09:25:39;;;;;;;8.10;6.30;;;;;;;29.10;45.69;100405.42;130188;1256;114748;-68
2023/06/07 09:28:41;;;;;;;6.30;5.60;;;;;;;28.99;45.11;100402.63;130326;1256;114735;-69
2023/06/07 09:31:43;;;;;;;6.80;6.00;;;;;;;28.89;45.25;100396.65;130356;1276;114722;-68
2023/06/07 09:34:46;;;;;;;10.50;6.20;;;;;;;28.90;45.02;100394.55;131095;1256;115302;-69
2023/06/07 09:37:55;;;;;;;7.20;6.00;;;;;;;28.92;44.59;100390.96;132749;1257;114753;-68
2023/06/07 09:40:58;;;;;;;10.00;5.70;;;;;;;28.84;44.16;100390.70;132101;1253;114791;-68
2023/06/07 09:44:02;;;;;;;7.10;6.40;;;;;;;28.70;43.95;100389.08;131207;1254;114738;-68
2023/06/07 09:47:04;;;;;;;9.10;6.60;;;;;;;28.70;44.20;100383.84;130241;1261;114908;-69
2023/06/07 09:50:12;;;;;;;7.70;5.60;;;;;;;28.80;43.86;100378.65;130485;1259;114776;-72
2023/06/07 09:53:16;;;;;;;9.00;6.80;;;;;;;28.89;43.89;100375.39;130537;1256;115249;-68
2023/06/07 09:56:20;;;;;;;8.20;6.20;;;;;;;28.88;43.80;100372.62;130163;1261;115093;-69
2023/06/07 09:59:22;;;;;;;9.20;6.60;;;;;;;28.88;43.75;100371.27;130396;1257;114711;-68
2023/06/07 10:02:28;;;;;;;10.50;6.50;;;;;;;28.91;44.02;100368.54;130404;1256;115176;-68
2023/06/07 10:05:31;;;;;;;11.80;6.90;;;;;;;28.98;43.94;100365.40;130520;1256;120074;-68
2023/06/07 10:08:33;;;;;;;7.40;6.50;;;;;;;28.98;43.35;100363.61;130229;1256;115326;-68
2023/06/07 10:11:37;;;;;;;9.60;6.00;;;;;;;28.92;43.15;100361.98;130199;1276;114744;-69
2023/06/07 10:14:41;;;;;;;9.80;6.60;;;;;;;28.92;43.18;100361.52;130398;1276;115275;-68
2023/06/07 10:17:49;;;;;;;8.40;5.50;;;;;;;28.97;43.14;100354.30;129945;1256;114786;-69
2023/06/07 10:21:02;;;;;;;6.40;5.40;;;;;;;29.08;43.06;100354.08;130267;1255;114966;-69
2023/06/07 10:24:09;;;;;;;9.60;6.20;;;;;;;29.16;42.76;100346.69;130377;1256;120381;-68
2023/06/07 10:27:14;;;;;;;6.70;5.60;;;;;;;29.26;42.46;100344.60;130223;1260;115170;-68
2023/06/07 10:30:16;;;;;;;8.70;5.10;;;;;;;29.39;42.56;100346.36;130140;1261;114885;-70
2023/06/07 10:33:19;;;;;;;10.30;6.10;;;;;;;29.52;41.80;100343.28;130323;1257;114715;-68
2023/06/07 10:36:23;;;;;;;7.00;5.30;;;;;;;29.61;41.05;100343.79;130339;1256;114712;-68
2023/06/07 10:39:25;;;;;;;9.20;6.50;;;;;;;29.71;41.34;100340.08;130322;1273;114689;-67
2023/06/07 10:42:27;;;;;;;7.60;5.70;;;;;;;29.80;40.49;100336.70;130380;1256;114719;-67
2023/06/07 10:45:32;;;;;;;15.20;5.40;;;;;;;29.69;38.77;100338.11;130087;1260;114892;-67
2023/06/07 10:48:35;;;;;;;5.70;5.20;;;;;;;29.51;38.35;100332.92;130356;1254;114814;-67
2023/06/07 10:51:51;;;;;;;6.40;5.20;;;;;;;29.50;38.09;100328.33;130413;1275;114766;-67
2023/06/07 10:54:54;;;;;;;9.90;4.70;;;;;;;29.39;37.33;100325.82;130324;1275;119908;-66
2023/06/07 10:57:56;;;;;;;7.80;5.30;;;;;;;29.32;36.44;100322.35;130057;1275;114789;-67
2023/06/07 11:01:22;;;;;;;9.50;5.40;;;;;;;29.20;36.73;100310.35;130405;1275;115269;-67
2023/06/07 11:04:31;;;;;;;5.50;4.80;;;;;;;29.20;36.01;100306.56;130441;1257;114781;-67
2023/06/07 11:07:37;;;;;;;7.80;5.30;;;;;;;29.26;36.42;100302.45;130559;1254;114686;-67
2023/06/07 11:10:39;;;;;;;8.90;5.00;;;;;;;29.35;35.20;100304.62;130208;1257;119091;-67
2023/06/07 11:13:44;;;;;;;5.90;5.10;;;;;;;29.32;35.67;100294.48;130349;1275;114801;-67
2023/06/07 11:16:47;;;;;;;9.40;5.40;;;;;;;29.34;35.47;100308.36;130429;1275;114693;-67
2023/06/07 11:19:53;;;;;;;7.80;5.10;;;;;;;29.33;35.63;100304.89;130375;1256;114750;-66
2023/06/07 11:23:19;;;;;;;7.80;3.90;;;;;;;29.39;35.62;100297.31;130246;1256;114749;-69
2023/06/07 11:26:22;;;;;;;7.90;5.00;;;;;;;29.51;35.20;100294.95;130074;1260;119601;-67
2023/06/07 11:29:24;;;;;;;6.50;5.30;;;;;;;29.45;34.76;100302.17;130155;1258;115313;-68
2023/06/07 11:32:27;;;;;;;7.70;5.60;;;;;;;29.34;34.60;100300.16;130205;1277;114668;-69
2023/06/07 11:35:32;;;;;;;8.70;5.20;;;;;;;29.06;34.17;100300.00;130124;1269;114757;-68
2023/06/07 11:38:34;;;;;;;10.80;5.20;;;;;;;28.71;35.10;100306.47;129933;1262;114908;-68
2023/06/07 11:41:38;;;;;;;17.50;5.70;;;;;;;28.32;36.38;100308.77;130178;1259;114734;-68
2023/06/07 11:44:41;;;;;;;12.30;6.30;;;;;;;27.77;38.47;100309.69;129992;1260;115110;-68
2023/06/07 11:47:48;;;;;;;10.00;6.40;;;;;;;27.07;40.19;100315.89;130105;1259;114788;-67
2023/06/07 11:50:50;;;;;;;9.30;6.20;;;;;;;26.39;41.80;100307.45;129837;1259;114891;-67
2023/06/07 11:53:57;;;;;;;14.70;7.30;;;;;;;25.95;42.92;100303.58;130051;1259;114728;-67
2023/06/07 11:57:00;;;;;;;11.10;6.80;;;;;;;25.47;44.46;100299.80;130046;1259;120355;-67
2023/06/07 12:00:11;;;;;;;7.40;6.60;;;;;;;25.03;45.45;100291.18;130347;1256;115183;-67
2023/06/07 12:03:13;;;;;;;10.00;6.90;;;;;;;24.70;46.98;100284.36;130101;1259;114736;-67
2023/06/07 12:06:16;;;;;;;9.60;7.10;;;;;;;24.50;47.90;100280.71;130234;1278;114702;-67
2023/06/07 12:09:22;;;;;;;9.40;6.20;;;;;;;24.37;48.63;100281.25;130051;1257;114790;-67
2023/06/07 12:12:24;;;;;;;9.20;7.00;;;;;;;24.26;49.28;100279.73;129998;1256;128530;-68
2023/06/07 12:15:29;;;;;;;8.90;7.60;;;;;;;24.19;49.89;100284.95;130037;1256;114796;-68
2023/06/07 12:18:35;;;;;;;13.00;7.20;;;;;;;24.19;50.62;100284.23;129833;1261;115086;-68
2023/06/07 12:21:37;;;;;;;9.30;7.80;;;;;;;24.22;51.03;100276.38;129875;1271;114904;-68
2023/06/07 12:24:39;;;;;;;12.10;7.70;;;;;;;24.30;51.66;100274.79;130016;1259;114787;-68
2023/06/07 12:27:48;;;;;;;13.60;7.90;;;;;;;24.37;51.83;100276.96;130096;1260;114793;-68
2023/06/07 12:30:50;;;;;;;11.10;7.40;;;;;;;24.39;51.54;100276.77;130177;1255;128642;-68
2023/06/07 12:34:02;;;;;;;10.30;7.80;;;;;;;24.41;51.62;100278.40;130232;1258;114708;-67
2023/06/07 12:37:04;;;;;;;12.10;6.90;;;;;;;24.43;51.56;100281.59;129943;1262;114813;-67
2023/06/07 12:40:08;;;;;;;12.00;6.90;;;;;;;24.45;51.42;100279.21;130173;1259;114709;-67
2023/06/07 12:43:10;;;;;;;9.00;7.20;;;;;;;24.49;51.41;100282.09;130285;1276;115401;-67
2023/06/07 12:46:13;;;;;;;13.30;6.70;;;;;;;24.51;51.06;100280.54;130208;1276;114673;-67
2023/06/07 12:49:15;;;;;;;9.60;7.00;;;;;;;24.51;50.66;100282.20;130261;1260;114784;-67
2023/06/07 12:52:18;;;;;;;15.90;7.60;;;;;;;24.48;50.62;100282.75;130349;1276;114732;-66
2023/06/07 12:55:20;;;;;;;12.90;7.90;;;;;;;24.47;50.77;100283.39;129897;1262;115062;-67
2023/06/07 12:58:22;;;;;;;13.80;7.80;;;;;;;24.46;50.85;100281.84;130289;1257;114769;-66
2023/06/07 13:01:24;;;;;;;19.90;7.10;;;;;;;24.45;50.90;100274.86;130355;1259;114795;-67
2023/06/07 13:04:27;;;;;;;10.10;7.20;;;;;;;24.50;51.00;100269.80;130376;1259;114817;-65
2023/06/07 13:07:29;;;;;;;11.50;7.30;;;;;;;24.58;51.13;100267.90;130366;1256;128967;-65
2023/06/07 13:10:31;;;;;;;12.90;7.00;;;;;;;24.71;50.93;100267.76;130337;1276;114721;-65
2023/06/07 13:13:34;;;;;;;13.80;6.80;;;;;;;24.86;51.18;100263.81;130433;1266;115159;-63
2023/06/07 13:16:36;;;;;;;11.60;7.30;;;;;;;25.05;51.22;100254.63;130065;1254;114696;-65
2023/06/07 13:19:39;;;;;;;13.30;7.60;;;;;;;25.24;51.30;100253.73;130268;1259;114730;-63
2023/06/07 13:22:41;;;;;;;13.20;7.40;;;;;;;25.43;51.23;100246.91;130037;1272;114773;-65
2023/06/07 13:25:43;;;;;;;10.20;6.80;;;;;;;25.63;51.03;100245.02;130334;1274;114815;-65
2023/06/07 13:28:47;;;;;;;16.30;6.80;;;;;;;25.80;50.69;100240.90;130501;1254;119830;-65
2023/06/07 13:31:49;;;;;;;10.30;6.90;;;;;;;25.95;50.13;100239.51;130282;1254;115313;-64
2023/06/07 13:34:51;;;;;;;10.50;6.90;;;;;;;26.08;50.24;100236.91;130352;1257;114722;-64
2023/06/07 13:37:55;;;;;;;9.10;6.50;;;;;;;26.19;50.14;100236.56;130024;1257;114698;-64
2023/06/07 13:41:00;;;;;;;11.50;7.40;;;;;;;26.30;49.84;100237.46;130074;1272;114714;-65